Time;durP1;ratioP1;P1;durP2;ratioP2;P2;SDS_P1;SDS_P2;PMS_P1;PMS_P2;Temp;Humidity;BMP_temperature;BMP_pressure;BME280_temperature;BME280_humidity;BME280_pressure;Samples;Min_cycle;Max_cycle;Signal;HPM_P1;HPM_P2
2023/09/22 00:00:20;;;;;;;1.47;0.67;;;;;;;15.57;100.00;96853.78;5073522;28;20223;-77
2023/09/22 00:02:47;;;;;;;1.20;0.60;;;;;;;15.61;100.00;96863.09;5073357;28;20207;-77
2023/09/22 00:05:14;;;;;;;1.10;0.70;;;;;;;15.59;100.00;96862.44;5073221;28;20211;-77
2023/09/22 00:07:41;;;;;;;1.00;0.80;;;;;;;15.54;100.00;96862.09;5072989;28;20288;-78
2023/09/22 00:10:08;;;;;;;1.23;0.80;;;;;;;15.52;100.00;96853.47;5073099;28;20612;-77
2023/09/22 00:12:35;;;;;;;1.17;0.63;;;;;;;15.47;100.00;96858.44;5073046;28;20228;-77
2023/09/22 00:15:04;;;;;;;0.73;0.67;;;;;;;15.40;100.00;96857.44;5073147;28;20203;-77
2023/09/22 00:17:30;;;;;;;1.67;0.60;;;;;;;15.34;100.00;96866.91;5072943;28;20674;-77
2023/09/22 00:19:57;;;;;;;2.07;0.60;;;;;;;15.28;100.00;96862.22;5072923;28;20309;-77
2023/09/22 00:22:24;;;;;;;0.67;0.57;;;;;;;15.28;100.00;96867.53;5072312;28;20237;-77
2023/09/22 00:24:50;;;;;;;0.63;0.63;;;;;;;15.24;100.00;96863.56;5072948;28;20674;-77
2023/09/22 00:27:17;;;;;;;1.50;0.60;;;;;;;15.24;100.00;96862.72;5072623;28;20208;-77
2023/09/22 00:29:45;;;;;;;1.40;0.70;;;;;;;15.23;100.00;96861.06;5073398;28;20211;-77
2023/09/22 00:32:13;;;;;;;1.23;0.70;;;;;;;15.19;100.00;96859.72;5072383;28;20353;-77
2023/09/22 00:34:40;;;;;;;0.80;0.70;;;;;;;15.16;100.00;96850.22;5072909;28;20242;-78
2023/09/22 00:37:07;;;;;;;1.37;0.70;;;;;;;15.07;100.00;96840.59;5072724;28;20211;-77
2023/09/22 00:39:33;;;;;;;0.70;0.60;;;;;;;15.02;100.00;96826.94;5072632;28;20264;-78
2023/09/22 00:42:01;;;;;;;0.93;0.60;;;;;;;15.00;100.00;96825.44;5072446;28;20278;-77
2023/09/22 00:44:28;;;;;;;1.77;0.77;;;;;;;15.02;100.00;96826.13;5072590;28;20210;-77
2023/09/22 00:46:54;;;;;;;2.07;0.70;;;;;;;15.04;100.00;96842.75;5072572;28;20569;-77
2023/09/22 00:49:24;;;;;;;0.83;0.80;;;;;;;15.03;100.00;96854.41;5072280;28;20736;-77
2023/09/22 00:51:50;;;;;;;0.73;0.60;;;;;;;15.01;100.00;96856.38;5072427;28;20651;-77
2023/09/22 00:54:17;;;;;;;1.23;0.80;;;;;;;15.00;100.00;96868.00;5072549;28;20211;-77
2023/09/22 00:56:46;;;;;;;1.40;0.73;;;;;;;14.95;100.00;96872.97;5072403;28;20568;-77
2023/09/22 00:59:14;;;;;;;1.57;1.03;;;;;;;14.88;100.00;96874.63;5072651;28;20200;-77
2023/09/22 01:01:42;;;;;;;0.63;0.63;;;;;;;14.83;100.00;96876.94;5072089;28;20619;-77
2023/09/22 01:04:09;;;;;;;2.20;0.90;;;;;;;14.79;100.00;96884.41;5072173;28;20207;-78
2023/09/22 01:06:37;;;;;;;0.90;0.67;;;;;;;14.77;100.00;96885.56;5072615;28;20233;-77
2023/09/22 01:09:06;;;;;;;1.07;0.77;;;;;;;14.71;100.00;96878.25;5071917;28;20578;-77
2023/09/22 01:11:33;;;;;;;1.83;0.77;;;;;;;14.69;100.00;96891.72;5071913;28;20227;-77
2023/09/22 01:13:59;;;;;;;1.80;0.73;;;;;;;14.66;100.00;96877.91;5072295;28;20299;-77
2023/09/22 01:16:26;;;;;;;3.03;0.80;;;;;;;14.62;100.00;96876.56;5072182;28;20211;-77
2023/09/22 01:18:53;;;;;;;0.80;0.70;;;;;;;14.59;100.00;96874.22;5071980;28;20665;-77
2023/09/22 01:21:19;;;;;;;1.53;0.87;;;;;;;14.53;100.00;96869.53;5071902;28;20292;-77
2023/09/22 01:23:47;;;;;;;1.17;0.70;;;;;;;14.48;100.00;96859.38;5072205;28;20202;-77
2023/09/22 01:26:13;;;;;;;1.40;0.70;;;;;;;14.48;100.00;96869.22;5072366;28;20203;-77
2023/09/22 01:28:40;;;;;;;0.70;0.50;;;;;;;14.45;100.00;96858.88;5071895;28;20246;-77
2023/09/22 01:31:06;;;;;;;0.87;0.80;;;;;;;14.42;100.00;96848.59;5072548;28;20228;-80
2023/09/22 01:33:33;;;;;;;2.30;0.80;;;;;;;14.42;100.00;96846.75;5071316;28;20630;-77
2023/09/22 01:35:59;;;;;;;0.90;0.70;;;;;;;14.40;100.00;96840.75;5072198;28;20203;-77
2023/09/22 01:38:26;;;;;;;0.87;0.87;;;;;;;14.39;100.00;96849.72;5072019;28;20215;-77
2023/09/22 01:40:54;;;;;;;1.03;0.80;;;;;;;14.34;100.00;96869.78;5071574;28;20235;-77
2023/09/22 01:43:21;;;;;;;0.90;0.70;;;;;;;14.34;100.00;96883.06;5072022;28;20203;-77
2023/09/22 01:45:47;;;;;;;1.47;0.90;;;;;;;14.25;100.00;96884.03;5071771;28;20605;-77
2023/09/22 01:48:14;;;;;;;0.87;0.77;;;;;;;14.18;100.00;96885.66;5071957;28;20234;-77
2023/09/22 01:50:41;;;;;;;0.60;0.60;;;;;;;14.18;100.00;96889.13;5071762;28;20205;-77
2023/09/22 01:53:09;;;;;;;1.27;0.93;;;;;;;14.14;100.00;96897.56;5071994;28;20210;-77
2023/09/22 01:55:36;;;;;;;1.20;0.87;;;;;;;14.13;100.00;96874.66;5071508;28;20221;-77
2023/09/22 01:58:05;;;;;;;2.07;0.90;;;;;;;14.08;100.00;96887.56;5071568;28;20207;-77
2023/09/22 02:00:33;;;;;;;1.70;0.80;;;;;;;14.08;100.00;96882.25;5071488;28;20211;-77
2023/09/22 02:02:59;;;;;;;0.70;0.70;;;;;;;13.99;100.00;96869.94;5071281;28;20677;-77
2023/09/22 02:05:26;;;;;;;2.30;0.90;;;;;;;13.88;100.00;96873.66;5071644;28;20681;-77
2023/09/22 02:07:53;;;;;;;1.63;0.97;;;;;;;13.84;100.00;96868.81;5071390;28;20242;-77
2023/09/22 02:10:20;;;;;;;0.93;0.70;;;;;;;13.79;100.00;96860.50;5071799;28;20273;-78
2023/09/22 02:12:47;;;;;;;2.03;1.00;;;;;;;13.75;100.00;96861.81;5071299;28;20217;-77
2023/09/22 02:15:16;;;;;;;1.00;0.77;;;;;;;13.77;100.00;96862.47;5071644;28;20219;-77
2023/09/22 02:17:43;;;;;;;0.70;0.70;;;;;;;13.73;100.00;96861.13;5071645;28;20214;-78
2023/09/22 02:20:22;;;;;;;0.90;0.77;;;;;;;13.72;100.00;96859.44;5071499;28;20210;-77
2023/09/22 02:22:49;;;;;;;0.83;0.70;;;;;;;13.73;100.00;96866.44;5071738;28;20214;-77
2023/09/22 02:25:16;;;;;;;1.00;0.80;;;;;;;13.70;100.00;96866.75;5071740;28;20211;-77
2023/09/22 02:27:43;;;;;;;1.40;0.90;;;;;;;13.73;100.00;96871.72;5071196;28;20251;-78
2023/09/22 02:30:10;;;;;;;1.13;0.93;;;;;;;13.76;100.00;96880.22;5071662;28;20207;-77
2023/09/22 02:32:40;;;;;;;1.23;0.80;;;;;;;13.74;100.00;96878.75;5071430;28;20238;-77
2023/09/22 02:35:07;;;;;;;1.00;0.80;;;;;;;13.79;100.00;96892.34;5071940;28;20203;-77
2023/09/22 02:37:34;;;;;;;0.70;0.70;;;;;;;13.81;100.00;96890.41;5072155;28;20214;-79
2023/09/22 02:40:00;;;;;;;1.67;1.00;;;;;;;13.82;100.00;96886.75;5071551;28;20215;-78
2023/09/22 02:42:28;;;;;;;2.53;1.00;;;;;;;13.81;100.00;96869.97;5071707;28;20583;-78
2023/09/22 02:44:54;;;;;;;1.03;0.93;;;;;;;13.77;100.00;96867.78;5071643;28;20243;-78
2023/09/22 02:47:22;;;;;;;1.13;0.90;;;;;;;13.78;100.00;96877.41;5075059;28;20431;-78
2023/09/22 02:49:50;;;;;;;2.47;1.03;;;;;;;13.74;100.00;96895.47;5075897;28;20700;-78
2023/09/22 02:52:16;;;;;;;2.00;0.93;;;;;;;13.79;100.00;96908.28;5075107;28;20256;-78
2023/09/22 02:54:43;;;;;;;2.40;0.90;;;;;;;13.78;100.00;96901.31;5075308;28;20226;-78
2023/09/22 02:57:09;;;;;;;1.20;0.83;;;;;;;13.77;100.00;96904.97;5075354;28;20218;-78
2023/09/22 02:59:36;;;;;;;1.00;0.80;;;;;;;13.78;100.00;96911.94;5075227;28;20209;-78
2023/09/22 03:02:02;;;;;;;1.17;0.90;;;;;;;13.74;100.00;96903.44;5074632;28;20239;-78
2023/09/22 03:04:30;;;;;;;0.90;0.80;;;;;;;13.76;100.00;96895.34;5075186;28;20297;-78
2023/09/22 03:06:57;;;;;;;1.03;0.93;;;;;;;13.76;100.00;96888.19;5074930;28;20612;-78
2023/09/22 03:09:24;;;;;;;1.00;0.80;;;;;;;13.74;100.00;96863.63;5074865;28;20238;-78
2023/09/22 03:11:50;;;;;;;2.07;0.80;;;;;;;13.75;100.00;96859.16;5074274;28;20265;-78
2023/09/22 03:14:17;;;;;;;2.43;1.00;;;;;;;13.81;100.00;96866.50;5074354;28;20214;-78
2023/09/22 03:16:43;;;;;;;1.97;0.90;;;;;;;13.80;100.00;96865.66;5074810;28;20210;-78
2023/09/22 03:19:10;;;;;;;1.77;1.43;;;;;;;13.77;100.00;96870.44;5074984;28;20202;-78
2023/09/22 03:21:37;;;;;;;1.53;1.00;;;;;;;13.77;100.00;96886.38;5074443;28;20242;-78
2023/09/22 03:24:06;;;;;;;1.87;1.37;;;;;;;13.77;100.00;96881.06;5074747;28;20305;-78
2023/09/22 03:26:32;;;;;;;1.30;0.90;;;;;;;13.74;100.00;96892.84;5074615;28;20220;-78
2023/09/22 03:29:00;;;;;;;0.97;0.87;;;;;;;13.77;100.00;96894.34;5074118;28;20234;-78
2023/09/22 03:31:26;;;;;;;1.57;0.80;;;;;;;13.77;100.00;96889.88;5073858;28;20284;-78
2023/09/22 03:33:53;;;;;;;0.87;0.80;;;;;;;13.84;100.00;96898.03;5074374;28;20226;-78
2023/09/22 03:36:19;;;;;;;1.17;0.87;;;;;;;13.82;100.00;96897.38;5073878;28;20207;-78
2023/09/22 03:38:46;;;;;;;0.93;0.83;;;;;;;13.79;100.00;96900.31;5074239;28;20207;-78
2023/09/22 03:41:15;;;;;;;0.80;0.80;;;;;;;13.79;100.00;96924.22;5074320;28;20235;-78
2023/09/22 03:43:43;;;;;;;1.27;0.90;;;;;;;13.79;100.00;96950.78;5074089;28;20334;-78
2023/09/22 03:46:10;;;;;;;0.80;0.80;;;;;;;13.82;100.00;96955.78;5074106;28;20288;-78
2023/09/22 03:48:36;;;;;;;1.03;0.70;;;;;;;13.80;100.00;96968.38;5073977;28;20598;-78
2023/09/22 03:51:03;;;;;;;1.00;0.90;;;;;;;13.77;100.00;96966.88;5073431;28;20242;-78
2023/09/22 03:53:29;;;;;;;0.90;0.67;;;;;;;13.79;100.00;96972.88;5073967;28;20605;-78
2023/09/22 03:55:57;;;;;;;0.80;0.60;;;;;;;13.84;100.00;96975.91;5073677;28;20207;-78
2023/09/22 03:58:25;;;;;;;2.13;1.07;;;;;;;13.78;100.00;96970.34;5073369;28;20213;-78
2023/09/22 04:00:53;;;;;;;1.07;0.70;;;;;;;13.78;100.00;96960.59;5073502;28;20238;-78
2023/09/22 04:03:19;;;;;;;1.40;1.10;;;;;;;13.78;100.00;96959.75;5073267;28;20207;-78
2023/09/22 04:05:46;;;;;;;2.00;1.00;;;;;;;13.81;100.00;96946.16;5074122;28;20214;-78
2023/09/22 04:08:12;;;;;;;1.00;0.90;;;;;;;13.81;100.00;96943.50;5073839;28;20225;-78
2023/09/22 04:10:39;;;;;;;1.47;0.80;;;;;;;13.81;100.00;96927.59;5073544;28;20688;-78
2023/09/22 04:13:06;;;;;;;0.87;0.80;;;;;;;13.79;100.00;96908.28;5073943;28;20579;-78
2023/09/22 04:15:35;;;;;;;1.13;0.90;;;;;;;13.78;100.00;96912.78;5073883;28;20211;-78
2023/09/22 04:18:02;;;;;;;2.47;1.00;;;;;;;13.80;100.00;96908.16;5073324;28;20246;-78
2023/09/22 04:20:32;;;;;;;1.40;0.97;;;;;;;13.78;100.00;96915.44;5072684;28;20207;-78
2023/09/22 04:22:59;;;;;;;1.53;1.00;;;;;;;13.78;100.00;96896.84;5072678;28;20206;-78
2023/09/22 04:25:31;;;;;;;1.80;1.00;;;;;;;13.85;100.00;96905.88;5073065;28;20625;-78
2023/09/22 04:28:07;;;;;;;1.83;1.13;;;;;;;13.89;100.00;96906.38;5072929;28;20217;-78
2023/09/22 04:30:36;;;;;;;1.27;0.90;;;;;;;13.95;100.00;96916.38;5072528;28;20257;-78
2023/09/22 04:33:02;;;;;;;2.03;1.27;;;;;;;13.97;100.00;96909.06;5072874;28;20583;-78
2023/09/22 04:35:32;;;;;;;1.90;1.10;;;;;;;13.98;100.00;96926.69;5072575;28;20310;-78
2023/09/22 04:37:58;;;;;;;1.70;1.10;;;;;;;14.00;100.00;96924.72;5072720;28;20253;-78
2023/09/22 04:40:27;;;;;;;1.87;1.17;;;;;;;14.04;100.00;96920.75;5072325;28;20203;-78
2023/09/22 04:42:54;;;;;;;2.23;1.20;;;;;;;14.07;100.00;96923.09;5072909;28;20243;-78
2023/09/22 04:45:21;;;;;;;1.57;1.00;;;;;;;14.09;100.00;96916.66;5072878;28;20299;-78
2023/09/22 04:47:51;;;;;;;1.20;1.00;;;;;;;14.11;100.00;96908.53;5072802;28;20287;-78
2023/09/22 04:50:18;;;;;;;2.07;1.20;;;;;;;14.12;100.00;96913.66;5072837;28;20598;-78
2023/09/22 04:52:46;;;;;;;1.20;0.93;;;;;;;14.14;100.00;96916.16;5072267;28;20303;-78
2023/09/22 04:55:12;;;;;;;1.13;0.87;;;;;;;14.11;100.00;96908.53;5072692;28;20310;-78
2023/09/22 04:57:38;;;;;;;2.00;1.00;;;;;;;14.13;100.00;96906.53;5072258;28;20652;-78
2023/09/22 05:00:13;;;;;;;1.10;0.97;;;;;;;14.08;100.00;96914.13;5072452;28;20207;-78
2023/09/22 05:02:40;;;;;;;3.13;1.20;;;;;;;14.06;100.00;96910.81;5072021;28;20609;-78
2023/09/22 05:05:09;;;;;;;1.63;1.10;;;;;;;14.08;100.00;96911.47;5072459;28;20591;-78
2023/09/22 05:07:36;;;;;;;1.40;1.17;;;;;;;14.06;100.00;96916.13;5072526;28;20223;-78
2023/09/22 05:10:06;;;;;;;1.50;0.90;;;;;;;14.05;100.00;96902.00;5071902;28;20712;-78
2023/09/22 05:12:32;;;;;;;1.53;1.00;;;;;;;14.06;100.00;96910.81;5072069;28;20235;-78
2023/09/22 05:15:00;;;;;;;2.50;1.30;;;;;;;14.06;100.00;96916.13;5072378;28;20281;-78
2023/09/22 05:17:27;;;;;;;2.00;1.40;;;;;;;14.06;100.00;96916.94;5072782;28;20210;-78
2023/09/22 05:19:54;;;;;;;1.30;1.00;;;;;;;14.09;100.00;96929.09;5072200;28;20207;-78
2023/09/22 05:22:22;;;;;;;1.63;1.17;;;;;;;14.13;100.00;96933.91;5071724;28;20227;-78
2023/09/22 05:24:49;;;;;;;3.43;1.20;;;;;;;14.17;100.00;96939.78;5071857;28;20213;-78
2023/09/22 05:27:15;;;;;;;2.70;1.30;;;;;;;14.17;100.00;96934.47;5071944;28;20691;-78
2023/09/22 05:29:42;;;;;;;1.40;0.90;;;;;;;14.18;100.00;96936.13;5072209;28;20305;-78
2023/09/22 05:32:09;;;;;;;1.33;1.23;;;;;;;14.20;100.00;96950.13;5071638;28;20239;-78
2023/09/22 05:34:37;;;;;;;3.07;1.33;;;;;;;14.20;100.00;96956.28;5071788;28;20246;-78
2023/09/22 05:37:03;;;;;;;1.80;1.33;;;;;;;14.18;100.00;96973.34;5071331;28;20304;-78
2023/09/22 05:39:31;;;;;;;2.73;1.23;;;;;;;14.18;100.00;96978.66;5071403;28;20219;-78
2023/09/22 05:41:58;;;;;;;2.20;1.17;;;;;;;14.19;100.00;96990.97;5071273;28;20233;-78
2023/09/22 05:44:25;;;;;;;2.77;1.47;;;;;;;14.16;100.00;96997.41;5071458;28;20211;-78
2023/09/22 05:46:52;;;;;;;3.70;1.50;;;;;;;14.15;100.00;97005.50;5071448;28;20226;-78
2023/09/22 05:49:18;;;;;;;2.23;1.37;;;;;;;14.17;100.00;97000.91;5071142;28;20227;-78
2023/09/22 05:51:45;;;;;;;2.27;1.63;;;;;;;14.20;100.00;96993.47;5071214;28;20238;-78
2023/09/22 05:54:11;;;;;;;2.77;1.20;;;;;;;14.17;100.00;97003.56;5071923;28;20207;-78
2023/09/22 05:56:40;;;;;;;2.47;2.00;;;;;;;14.15;100.00;97002.84;5071792;28;20214;-78
2023/09/22 05:59:06;;;;;;;1.73;1.43;;;;;;;14.21;100.00;97007.59;5071624;28;20586;-78
2023/09/22 06:01:35;;;;;;;1.77;1.23;;;;;;;14.19;100.00;97012.22;5071148;28;20235;-78
2023/09/22 06:04:04;;;;;;;1.83;1.40;;;;;;;14.17;100.00;97015.00;5071184;28;20247;-78
2023/09/22 06:06:31;;;;;;;2.30;1.30;;;;;;;14.17;100.00;97019.50;5071288;28;20348;-78
2023/09/22 06:08:58;;;;;;;1.83;1.00;;;;;;;14.17;100.00;97019.50;5071961;28;20226;-78
2023/09/22 06:11:25;;;;;;;2.03;1.17;;;;;;;14.20;100.00;97024.53;5071946;28;20234;-78
2023/09/22 06:13:53;;;;;;;2.07;1.20;;;;;;;14.19;100.00;97022.84;5072077;28;20542;-79
2023/09/22 06:16:19;;;;;;;2.23;1.10;;;;;;;14.25;100.00;97022.25;5072529;28;20210;-80
2023/09/22 06:18:46;;;;;;;1.30;1.10;;;;;;;14.21;100.00;97037.66;5072874;28;20212;-80
2023/09/22 06:21:13;;;;;;;2.20;1.00;;;;;;;14.30;100.00;97041.22;5075833;28;20230;-80
2023/09/22 06:23:39;;;;;;;1.00;0.80;;;;;;;14.24;100.00;97044.50;5076831;28;20221;-79
2023/09/22 06:26:08;;;;;;;1.60;1.13;;;;;;;14.22;100.00;97033.16;5077292;28;20326;-79
2023/09/22 06:28:35;;;;;;;2.03;0.90;;;;;;;14.26;100.00;97043.34;5077700;28;20253;-79
2023/09/22 06:31:04;;;;;;;2.37;1.00;;;;;;;14.29;100.00;97051.00;5078115;28;20245;-79
2023/09/22 06:33:31;;;;;;;2.00;1.07;;;;;;;14.24;100.00;97052.47;5077467;28;20212;-79
2023/09/22 06:35:59;;;;;;;2.17;0.80;;;;;;;14.25;100.00;97059.44;5076987;28;20582;-79
2023/09/22 06:38:26;;;;;;;1.60;0.80;;;;;;;14.20;100.00;97061.72;5077090;28;20234;-79
2023/09/22 06:40:55;;;;;;;3.07;1.03;;;;;;;14.22;100.00;97051.75;5076065;28;20234;-79
2023/09/22 06:43:23;;;;;;;1.47;1.00;;;;;;;14.23;100.00;97042.84;5076169;28;20227;-79
2023/09/22 06:45:51;;;;;;;1.53;1.07;;;;;;;14.25;100.00;97056.78;5075518;28;20227;-79
2023/09/22 06:48:22;;;;;;;1.70;0.80;;;;;;;14.34;100.00;97058.50;5076226;28;20207;-80
2023/09/22 06:50:51;;;;;;;1.73;1.10;;;;;;;14.42;100.00;97061.25;5074951;28;20243;-79
2023/09/22 06:53:17;;;;;;;1.47;1.10;;;;;;;14.51;100.00;97054.97;5075987;28;20203;-79
2023/09/22 06:55:44;;;;;;;1.10;1.00;;;;;;;14.57;100.00;97051.69;5075249;28;20207;-78
2023/09/22 06:58:11;;;;;;;1.30;1.03;;;;;;;14.61;100.00;97055.72;5077794;28;20217;-79
2023/09/22 07:00:37;;;;;;;1.27;0.97;;;;;;;14.68;100.00;97051.44;5080317;28;20245;-79
2023/09/22 07:03:05;;;;;;;1.30;0.90;;;;;;;14.78;100.00;97044.19;5076361;28;20217;-78
2023/09/22 07:05:33;;;;;;;1.63;1.17;;;;;;;14.89;100.00;97022.59;5075853;28;20211;-78
2023/09/22 07:08:01;;;;;;;2.13;1.23;;;;;;;14.97;100.00;97014.69;5076066;28;20614;-78
2023/09/22 07:10:28;;;;;;;2.93;1.30;;;;;;;15.01;100.00;97022.19;5075839;28;20318;-78
2023/09/22 07:12:54;;;;;;;2.43;1.40;;;;;;;15.06;100.00;97025.19;5075786;28;20222;-78
2023/09/22 07:15:23;;;;;;;2.63;1.40;;;;;;;15.16;100.00;97035.72;5075746;28;20216;-78
2023/09/22 07:17:49;;;;;;;1.30;1.10;;;;;;;15.18;100.00;97029.25;5075659;28;20692;-78
2023/09/22 07:20:16;;;;;;;2.17;1.30;;;;;;;15.18;100.00;97020.41;5076075;28;20235;-78
2023/09/22 07:22:44;;;;;;;1.77;1.30;;;;;;;15.14;100.00;97024.38;5075781;28;20227;-78
2023/09/22 07:25:11;;;;;;;2.37;1.10;;;;;;;15.18;100.00;97039.03;5075639;28;20231;-78
2023/09/22 07:27:39;;;;;;;1.40;1.20;;;;;;;15.17;100.00;97038.22;5075428;28;20214;-78
2023/09/22 07:30:09;;;;;;;3.33;1.20;;;;;;;15.21;100.00;97044.06;5075651;28;20320;-78
2023/09/22 07:32:37;;;;;;;1.77;1.10;;;;;;;15.26;100.00;97053.22;5074757;28;20263;-78
2023/09/22 07:35:05;;;;;;;1.40;1.00;;;;;;;15.25;100.00;97059.53;5075799;28;20661;-78
2023/09/22 07:37:31;;;;;;;1.10;1.00;;;;;;;15.26;100.00;97050.56;5075610;28;20256;-78
2023/09/22 07:40:00;;;;;;;0.80;0.80;;;;;;;15.24;100.00;97046.38;5075956;28;20219;-78
2023/09/22 07:42:31;;;;;;;1.63;1.00;;;;;;;15.24;100.00;97049.03;5075422;28;20227;-78
2023/09/22 07:44:58;;;;;;;1.37;0.90;;;;;;;15.27;100.00;97054.88;5075442;28;20223;-78
2023/09/22 07:47:25;;;;;;;2.33;1.17;;;;;;;15.33;100.00;97058.78;5075483;28;20579;-78
2023/09/22 07:49:54;;;;;;;3.07;1.10;;;;;;;15.41;100.00;97064.13;5075584;28;20326;-78
2023/09/22 07:52:22;;;;;;;1.58;1.10;;;;;;;15.37;100.00;97074.25;5074631;28;20481;-82
2023/09/22 07:54:49;;;;;;;2.33;1.40;;;;;;;15.34;100.00;97081.75;5074012;28;20422;-81
2023/09/22 07:57:17;;;;;;;2.70;1.50;;;;;;;15.31;100.00;97092.66;5074597;28;20216;-81
2023/09/22 07:59:44;;;;;;;1.80;1.20;;;;;;;15.30;100.00;97101.66;5074603;28;20210;-81
2023/09/22 08:02:11;;;;;;;2.27;1.50;;;;;;;15.36;100.00;97085.91;5074176;28;20228;-81
2023/09/22 08:04:38;;;;;;;1.37;1.10;;;;;;;15.33;100.00;97072.09;5074866;28;20214;-81
2023/09/22 08:07:06;;;;;;;1.30;1.10;;;;;;;15.32;100.00;97078.34;5075038;28;20219;-81
2023/09/22 08:09:32;;;;;;;2.47;1.00;;;;;;;15.31;100.00;97097.97;5074298;28;20219;-81
2023/09/22 08:11:59;;;;;;;1.83;1.00;;;;;;;15.33;100.00;97104.84;5074869;28;20227;-81
2023/09/22 08:14:27;;;;;;;2.63;1.17;;;;;;;15.30;100.00;97101.66;5074626;28;20212;-81
2023/09/22 08:16:53;;;;;;;2.43;1.40;;;;;;;15.32;100.00;97094.31;5074626;28;20235;-82
2023/09/22 08:19:20;;;;;;;2.57;1.50;;;;;;;15.36;100.00;97095.72;5075533;28;20203;-82
2023/09/22 08:21:48;;;;;;;1.17;1.07;;;;;;;15.38;100.00;97091.03;5076179;28;20242;-82
2023/09/22 08:24:15;;;;;;;1.70;1.30;;;;;;;15.43;100.00;97091.41;5073430;28;20578;-82
2023/09/22 08:26:42;;;;;;;3.17;1.27;;;;;;;15.44;100.00;97099.25;5075278;28;20211;-82
2023/09/22 08:29:09;;;;;;;2.37;1.60;;;;;;;15.52;100.00;97101.09;5077541;28;20207;-81
2023/09/22 08:31:37;;;;;;;2.67;1.57;;;;;;;15.66;100.00;97104.00;5076279;28;20235;-83
2023/09/22 08:34:03;;;;;;;1.60;1.20;;;;;;;15.95;100.00;97106.22;5077199;28;20223;-83
2023/09/22 08:36:30;;;;;;;1.63;1.20;;;;;;;16.25;100.00;97107.25;5078972;28;20218;-83
2023/09/22 08:38:57;;;;;;;2.53;1.30;;;;;;;16.43;100.00;97105.31;5078823;28;20298;-82
2023/09/22 08:41:26;;;;;;;1.53;1.10;;;;;;;16.51;100.00;97107.13;5080693;28;20265;-82
2023/09/22 08:43:54;;;;;;;1.30;0.93;;;;;;;16.57;100.00;97112.63;5082222;28;20203;-82
2023/09/22 08:46:21;;;;;;;1.03;0.93;;;;;;;16.57;100.00;97115.28;5082479;28;20223;-82
2023/09/22 08:48:50;;;;;;;1.50;1.00;;;;;;;16.58;100.00;97108.94;5082804;28;20208;-82
2023/09/22 08:51:17;;;;;;;1.30;0.90;;;;;;;16.63;100.00;97101.28;5082145;28;20233;-82
2023/09/22 08:53:44;;;;;;;2.50;0.80;;;;;;;16.69;100.00;97113.94;5081865;28;20212;-82
2023/09/22 08:56:10;;;;;;;2.03;0.80;;;;;;;16.71;100.00;97109.25;5082918;28;20217;-82
2023/09/22 08:58:37;;;;;;;1.43;0.80;;;;;;;16.72;100.00;97102.97;5081853;28;20207;-82
2023/09/22 09:01:04;;;;;;;0.60;0.60;;;;;;;16.82;100.00;97113.44;5082185;28;20224;-82
2023/09/22 09:03:31;;;;;;;1.20;0.70;;;;;;;16.90;100.00;97110.75;5083019;28;20212;-80
2023/09/22 09:06:08;;;;;;;1.00;0.73;;;;;;;17.00;100.00;97109.56;5077547;28;20214;-80
2023/09/22 09:08:35;;;;;;;1.40;0.70;;;;;;;17.13;100.00;97109.84;5075693;28;20211;-80
2023/09/22 09:11:06;;;;;;;1.90;0.70;;;;;;;17.19;100.00;97114.50;5075271;28;20257;-80
2023/09/22 09:13:34;;;;;;;1.00;0.80;;;;;;;17.26;100.00;97118.16;5075193;28;20231;-80
2023/09/22 09:16:06;;;;;;;0.80;0.70;;;;;;;17.29;100.00;97115.16;5076044;28;20215;-80
2023/09/22 09:18:33;;;;;;;1.23;0.80;;;;;;;17.28;100.00;97116.16;5075725;28;20220;-80
2023/09/22 09:21:10;;;;;;;2.30;0.70;;;;;;;17.33;100.00;97121.00;5075467;28;20235;-80
2023/09/22 09:23:37;;;;;;;1.50;0.80;;;;;;;17.33;100.00;97127.19;5075974;28;20207;-80
2023/09/22 09:26:03;;;;;;;0.80;0.80;;;;;;;17.32;100.00;97125.50;5074826;28;20261;-80
2023/09/22 09:28:30;;;;;;;3.00;0.90;;;;;;;17.30;100.00;97116.81;5076025;28;20314;-80
2023/09/22 09:30:58;;;;;;;0.77;0.70;;;;;;;17.28;100.00;97128.69;5076415;28;20227;-79
2023/09/22 09:33:26;;;;;;;1.33;0.80;;;;;;;17.22;100.00;97135.56;5076487;28;20207;-80
2023/09/22 09:35:53;;;;;;;1.50;0.82;;;;;;;17.19;100.00;97140.41;5077012;28;20444;-81
2023/09/22 09:38:25;;;;;;;1.70;0.63;;;;;;;17.13;100.00;97131.22;5074783;28;20218;-81
2023/09/22 09:40:52;;;;;;;0.60;0.60;;;;;;;17.13;100.00;97131.22;5074399;28;20224;-81
2023/09/22 09:43:19;;;;;;;0.93;0.80;;;;;;;17.13;100.00;97157.91;5075050;28;20199;-80
2023/09/22 09:45:49;;;;;;;1.43;0.60;;;;;;;17.12;100.00;97153.59;5074154;28;20230;-81
2023/09/22 09:48:17;;;;;;;1.03;0.70;;;;;;;17.06;100.00;97124.91;5074301;28;20203;-80
2023/09/22 09:50:48;;;;;;;1.40;0.80;;;;;;;17.06;100.00;97103.53;5073401;28;20698;-80
2023/09/22 09:53:26;;;;;;;0.93;0.80;;;;;;;17.24;100.00;97106.81;5073978;28;20211;-80
2023/09/22 09:55:58;;;;;;;0.50;0.50;;;;;;;17.47;100.00;97113.13;5077287;28;20211;-81
2023/09/22 09:58:27;;;;;;;0.70;0.70;;;;;;;17.62;100.00;97119.41;5078198;28;20214;-81
2023/09/22 10:00:54;;;;;;;1.37;0.80;;;;;;;17.72;100.00;97122.69;5077652;28;20227;-80
2023/09/22 10:03:22;;;;;;;2.13;0.80;;;;;;;17.81;100.00;97115.47;5077537;28;20212;-80
2023/09/22 10:05:51;;;;;;;0.80;0.80;;;;;;;17.90;100.00;97120.59;5076469;28;20211;-80
2023/09/22 10:08:19;;;;;;;1.70;0.80;;;;;;;17.86;100.00;97116.59;5078390;28;20329;-80
2023/09/22 10:10:48;;;;;;;0.57;0.53;;;;;;;17.99;100.00;97114.19;5077681;28;20235;-79
2023/09/22 10:13:15;;;;;;;1.10;0.80;;;;;;;18.07;100.00;97106.13;5078502;28;20214;-80
2023/09/22 10:15:58;;;;;;;0.83;0.60;;;;;;;18.14;100.00;97101.75;5078275;28;20221;-80
2023/09/22 10:18:44;;;;;;;0.70;0.63;;;;;;;18.34;100.00;97086.09;5078858;28;20209;-80
2023/09/22 10:21:32;;;;;;;0.90;0.67;;;;;;;18.61;100.00;97081.00;5078153;28;20223;-80
2023/09/22 10:24:14;;;;;;;0.60;0.60;;;;;;;19.13;99.74;97065.75;5078863;28;20673;-79
2023/09/22 10:27:08;;;;;;;1.00;0.60;;;;;;;19.23;94.08;97063.66;5078171;28;20249;-80
2023/09/22 10:29:51;;;;;;;0.97;0.60;;;;;;;19.23;93.50;97073.53;5076683;28;20203;-80
2023/09/22 10:32:26;;;;;;;1.70;0.60;;;;;;;19.14;94.59;97078.09;5076093;28;20233;-80
2023/09/22 10:34:54;;;;;;;1.27;0.50;;;;;;;19.16;95.55;97078.78;5077461;28;20313;-80
2023/09/22 10:37:22;;;;;;;0.83;0.60;;;;;;;19.31;93.37;97068.91;5076975;28;20214;-78
2023/09/22 10:39:59;;;;;;;0.50;0.50;;;;;;;19.42;92.66;97076.47;5076647;28;20206;-81
2023/09/22 10:42:28;;;;;;;0.67;0.60;;;;;;;19.56;92.78;97081.00;5076319;28;20661;-78
2023/09/22 10:44:59;;;;;;;1.10;0.60;;;;;;;19.63;91.04;97060.47;5077246;28;20207;-79
2023/09/22 10:47:28;;;;;;;0.50;0.50;;;;;;;19.70;88.26;97052.50;5077794;28;20210;-83
2023/09/22 10:49:55;;;;;;;1.13;0.60;;;;;;;19.65;88.62;97055.75;5079998;28;20242;-81
2023/09/22 10:52:22;;;;;;;0.80;0.60;;;;;;;19.62;89.40;97066.84;5080484;28;20227;-81
2023/09/22 10:54:48;;;;;;;1.23;0.50;;;;;;;19.72;86.53;97053.13;5081108;28;20223;-82
2023/09/22 10:57:27;;;;;;;0.57;0.33;;;;;;;19.73;83.07;97042.22;5080836;28;20218;-81
2023/09/22 10:59:55;;;;;;;0.87;0.60;;;;;;;19.62;85.48;97058.81;5080350;28;20207;-82
2023/09/22 11:02:23;;;;;;;0.40;0.40;;;;;;;19.52;83.97;97058.25;5080343;28;20266;-82
2023/09/22 11:04:49;;;;;;;0.60;0.50;;;;;;;19.44;83.86;97050.31;5085088;28;20563;-82
2023/09/22 11:07:30;;;;;;;0.40;0.40;;;;;;;19.47;83.06;97043.75;5085378;28;20203;-82
2023/09/22 11:09:57;;;;;;;0.50;0.50;;;;;;;19.53;82.03;97038.50;5089164;28;20207;-81
2023/09/22 11:12:24;;;;;;;0.83;0.40;;;;;;;19.48;81.67;97034.69;5088967;28;20255;-82
2023/09/22 11:14:53;;;;;;;0.83;0.70;;;;;;;19.39;79.63;97028.59;5084652;28;20206;-82
2023/09/22 11:17:20;;;;;;;0.70;0.50;;;;;;;19.49;82.49;97042.56;5082304;28;20210;-82
2023/09/22 11:19:53;;;;;;;0.70;0.50;;;;;;;19.43;80.76;97040.63;5082020;28;20208;-82
2023/09/22 11:22:20;;;;;;;0.77;0.60;;;;;;;19.44;78.35;97038.78;5080544;28;20330;-82
2023/09/22 11:24:47;;;;;;;0.63;0.53;;;;;;;19.52;78.21;97050.22;5081230;28;20207;-80
2023/09/22 11:27:13;;;;;;;0.40;0.40;;;;;;;19.39;74.92;97036.66;5080910;28;20805;-82
2023/09/22 11:29:41;;;;;;;0.43;0.30;;;;;;;19.37;75.77;97032.50;5080962;28;20207;-82